sensor_id;sensor_type;location;lat;lon;timestamp;P1;durP1;ratioP1;P2;durP2;ratioP2
41629;SDS011;27322;49.488;8.480;2023-05-29T00:28:59;5.13;;;2.47;;
41629;SDS011;27322;49.488;8.480;2023-05-29T01:03:18;7.60;;;2.88;;
41629;SDS011;27322;49.488;8.480;2023-05-29T01:05:45;6.35;;;2.67;;
41629;SDS011;27322;49.488;8.480;2023-05-29T01:08:11;9.45;;;3.40;;
41629;SDS011;27322;49.488;8.480;2023-05-29T01:10:37;7.25;;;3.38;;
41629;SDS011;27322;49.488;8.480;2023-05-29T01:13:08;9.27;;;3.40;;
41629;SDS011;27322;49.488;8.480;2023-05-29T01:18:51;8.25;;;3.05;;
41629;SDS011;27322;49.488;8.480;2023-05-29T01:27:03;7.00;;;2.55;;
41629;SDS011;27322;49.488;8.480;2023-05-29T01:29:34;6.05;;;2.53;;
41629;SDS011;27322;49.488;8.480;2023-05-29T01:32:02;7.10;;;2.60;;
41629;SDS011;27322;49.488;8.480;2023-05-29T01:34:29;6.85;;;2.67;;
41629;SDS011;27322;49.488;8.480;2023-05-29T01:36:55;5.05;;;2.67;;
41629;SDS011;27322;49.488;8.480;2023-05-29T01:39:21;6.68;;;2.40;;
41629;SDS011;27322;49.488;8.480;2023-05-29T01:41:48;7.30;;;2.45;;
41629;SDS011;27322;49.488;8.480;2023-05-29T01:44:14;5.43;;;2.60;;
41629;SDS011;27322;49.488;8.480;2023-05-29T01:46:41;7.22;;;2.50;;
41629;SDS011;27322;49.488;8.480;2023-05-29T01:49:08;6.65;;;2.63;;
41629;SDS011;27322;49.488;8.480;2023-05-29T01:51:36;5.20;;;2.38;;
41629;SDS011;27322;49.488;8.480;2023-05-29T01:54:02;6.18;;;2.35;;
41629;SDS011;27322;49.488;8.480;2023-05-29T01:56:29;7.03;;;2.63;;
41629;SDS011;27322;49.488;8.480;2023-05-29T01:58:56;5.38;;;2.47;;
41629;SDS011;27322;49.488;8.480;2023-05-29T02:01:23;5.80;;;2.78;;
41629;SDS011;27322;49.488;8.480;2023-05-29T02:03:49;6.85;;;2.30;;
41629;SDS011;27322;49.488;8.480;2023-05-29T02:06:16;6.07;;;2.50;;
41629;SDS011;27322;49.488;8.480;2023-05-29T02:08:41;5.97;;;2.50;;
41629;SDS011;27322;49.488;8.480;2023-05-29T02:11:07;7.50;;;2.45;;
41629;SDS011;27322;49.488;8.480;2023-05-29T02:13:33;7.18;;;2.65;;
41629;SDS011;27322;49.488;8.480;2023-05-29T02:15:59;5.68;;;2.72;;
41629;SDS011;27322;49.488;8.480;2023-05-29T02:18:25;5.95;;;2.47;;
41629;SDS011;27322;49.488;8.480;2023-05-29T02:20:52;8.52;;;3.03;;
41629;SDS011;27322;49.488;8.480;2023-05-29T02:23:17;7.03;;;2.53;;
41629;SDS011;27322;49.488;8.480;2023-05-29T02:25:44;6.82;;;2.35;;
41629;SDS011;27322;49.488;8.480;2023-05-29T02:28:11;6.32;;;2.70;;
41629;SDS011;27322;49.488;8.480;2023-05-29T02:30:37;6.22;;;2.38;;
41629;SDS011;27322;49.488;8.480;2023-05-29T02:33:03;5.53;;;2.75;;
41629;SDS011;27322;49.488;8.480;2023-05-29T02:35:29;6.65;;;2.80;;
41629;SDS011;27322;49.488;8.480;2023-05-29T02:37:55;6.22;;;2.70;;
41629;SDS011;27322;49.488;8.480;2023-05-29T02:40:21;8.40;;;2.60;;
41629;SDS011;27322;49.488;8.480;2023-05-29T02:42:47;5.53;;;2.58;;
41629;SDS011;27322;49.488;8.480;2023-05-29T02:45:13;6.15;;;2.72;;
41629;SDS011;27322;49.488;8.480;2023-05-29T02:47:38;6.55;;;2.50;;
41629;SDS011;27322;49.488;8.480;2023-05-29T02:50:07;7.03;;;2.70;;
41629;SDS011;27322;49.488;8.480;2023-05-29T02:52:39;5.63;;;2.47;;
41629;SDS011;27322;49.488;8.480;2023-05-29T02:55:06;6.68;;;3.15;;
41629;SDS011;27322;49.488;8.480;2023-05-29T02:57:32;7.32;;;2.50;;
41629;SDS011;27322;49.488;8.480;2023-05-29T02:59:58;7.63;;;2.58;;
41629;SDS011;27322;49.488;8.480;2023-05-29T03:02:25;6.60;;;2.53;;
41629;SDS011;27322;49.488;8.480;2023-05-29T03:04:51;6.45;;;2.40;;
41629;SDS011;27322;49.488;8.480;2023-05-29T03:07:18;5.88;;;2.50;;
41629;SDS011;27322;49.488;8.480;2023-05-29T03:09:45;6.32;;;2.42;;
41629;SDS011;27322;49.488;8.480;2023-05-29T03:12:10;7.25;;;2.75;;
41629;SDS011;27322;49.488;8.480;2023-05-29T03:14:37;8.88;;;2.95;;
41629;SDS011;27322;49.488;8.480;2023-05-29T03:17:06;5.30;;;2.55;;
41629;SDS011;27322;49.488;8.480;2023-05-29T03:19:32;5.60;;;2.55;;
41629;SDS011;27322;49.488;8.480;2023-05-29T03:21:58;7.82;;;2.90;;
41629;SDS011;27322;49.488;8.480;2023-05-29T03:24:24;8.18;;;2.67;;
41629;SDS011;27322;49.488;8.480;2023-05-29T03:26:50;5.75;;;2.60;;
41629;SDS011;27322;49.488;8.480;2023-05-29T03:29:17;5.82;;;2.50;;
41629;SDS011;27322;49.488;8.480;2023-05-29T03:31:43;5.50;;;2.38;;
41629;SDS011;27322;49.488;8.480;2023-05-29T03:34:09;5.00;;;2.10;;
41629;SDS011;27322;49.488;8.480;2023-05-29T03:36:35;7.57;;;3.05;;
41629;SDS011;27322;49.488;8.480;2023-05-29T03:39:03;6.03;;;2.83;;
41629;SDS011;27322;49.488;8.480;2023-05-29T03:41:29;5.40;;;2.40;;
41629;SDS011;27322;49.488;8.480;2023-05-29T03:43:54;6.00;;;2.53;;
41629;SDS011;27322;49.488;8.480;2023-05-29T03:46:20;5.63;;;2.75;;
41629;SDS011;27322;49.488;8.480;2023-05-29T03:48:45;6.40;;;2.92;;
41629;SDS011;27322;49.488;8.480;2023-05-29T03:51:11;6.68;;;2.75;;
41629;SDS011;27322;49.488;8.480;2023-05-29T03:53:36;6.95;;;2.60;;
41629;SDS011;27322;49.488;8.480;2023-05-29T03:56:02;5.70;;;2.47;;
41629;SDS011;27322;49.488;8.480;2023-05-29T03:58:28;6.97;;;2.75;;
41629;SDS011;27322;49.488;8.480;2023-05-29T04:00:54;5.88;;;2.70;;
41629;SDS011;27322;49.488;8.480;2023-05-29T04:03:19;6.35;;;2.75;;
41629;SDS011;27322;49.488;8.480;2023-05-29T04:05:45;6.45;;;2.58;;
41629;SDS011;27322;49.488;8.480;2023-05-29T04:08:11;7.90;;;2.60;;
41629;SDS011;27322;49.488;8.480;2023-05-29T04:10:38;6.20;;;2.60;;
41629;SDS011;27322;49.488;8.480;2023-05-29T04:13:04;7.15;;;2.65;;
41629;SDS011;27322;49.488;8.480;2023-05-29T04:15:31;6.38;;;2.33;;
41629;SDS011;27322;49.488;8.480;2023-05-29T04:17:58;5.38;;;2.70;;
41629;SDS011;27322;49.488;8.480;2023-05-29T04:20:24;6.40;;;2.70;;
41629;SDS011;27322;49.488;8.480;2023-05-29T04:22:52;5.28;;;2.30;;
41629;SDS011;27322;49.488;8.480;2023-05-29T04:25:18;6.03;;;2.42;;
41629;SDS011;27322;49.488;8.480;2023-05-29T04:27:44;5.05;;;2.47;;
41629;SDS011;27322;49.488;8.480;2023-05-29T04:30:14;7.97;;;2.90;;
41629;SDS011;27322;49.488;8.480;2023-05-29T04:32:41;9.57;;;2.90;;
41629;SDS011;27322;49.488;8.480;2023-05-29T04:35:07;7.90;;;2.50;;
41629;SDS011;27322;49.488;8.480;2023-05-29T04:37:35;4.75;;;2.38;;
41629;SDS011;27322;49.488;8.480;2023-05-29T04:40:05;5.55;;;2.50;;
41629;SDS011;27322;49.488;8.480;2023-05-29T04:42:34;5.50;;;2.53;;
41629;SDS011;27322;49.488;8.480;2023-05-29T04:45:03;5.97;;;2.60;;
41629;SDS011;27322;49.488;8.480;2023-05-29T04:47:30;6.63;;;2.42;;
41629;SDS011;27322;49.488;8.480;2023-05-29T04:49:58;5.40;;;2.70;;
41629;SDS011;27322;49.488;8.480;2023-05-29T04:52:24;6.00;;;2.40;;
41629;SDS011;27322;49.488;8.480;2023-05-29T04:54:51;7.00;;;2.50;;
41629;SDS011;27322;49.488;8.480;2023-05-29T04:57:17;7.43;;;2.60;;
41629;SDS011;27322;49.488;8.480;2023-05-29T04:59:43;5.60;;;2.55;;
41629;SDS011;27322;49.488;8.480;2023-05-29T05:02:09;6.20;;;2.30;;
41629;SDS011;27322;49.488;8.480;2023-05-29T05:04:35;5.05;;;2.30;;
41629;SDS011;27322;49.488;8.480;2023-05-29T05:07:04;6.20;;;2.97;;
41629;SDS011;27322;49.488;8.480;2023-05-29T05:09:30;7.55;;;3.00;;
41629;SDS011;27322;49.488;8.480;2023-05-29T05:11:56;7.90;;;2.67;;
41629;SDS011;27322;49.488;8.480;2023-05-29T05:14:22;6.90;;;2.63;;
41629;SDS011;27322;49.488;8.480;2023-05-29T05:16:48;6.65;;;2.60;;
41629;SDS011;27322;49.488;8.480;2023-05-29T05:19:14;5.35;;;2.40;;
41629;SDS011;27322;49.488;8.480;2023-05-29T05:21:40;7.75;;;2.65;;
41629;SDS011;27322;49.488;8.480;2023-05-29T05:24:06;6.00;;;2.67;;
41629;SDS011;27322;49.488;8.480;2023-05-29T05:26:34;5.85;;;2.53;;
41629;SDS011;27322;49.488;8.480;2023-05-29T05:29:00;6.40;;;2.70;;
41629;SDS011;27322;49.488;8.480;2023-05-29T05:31:26;8.02;;;3.08;;
41629;SDS011;27322;49.488;8.480;2023-05-29T05:33:52;5.47;;;2.25;;
41629;SDS011;27322;49.488;8.480;2023-05-29T05:36:18;5.93;;;2.60;;
41629;SDS011;27322;49.488;8.480;2023-05-29T05:38:44;7.43;;;2.67;;
41629;SDS011;27322;49.488;8.480;2023-05-29T05:41:10;5.43;;;2.53;;
41629;SDS011;27322;49.488;8.480;2023-05-29T05:43:36;5.45;;;2.65;;
41629;SDS011;27322;49.488;8.480;2023-05-29T05:46:04;8.05;;;2.80;;
41629;SDS011;27322;49.488;8.480;2023-05-29T05:48:33;5.90;;;2.65;;
41629;SDS011;27322;49.488;8.480;2023-05-29T05:50:59;5.90;;;2.83;;
41629;SDS011;27322;49.488;8.480;2023-05-29T05:53:25;5.90;;;2.30;;
41629;SDS011;27322;49.488;8.480;2023-05-29T05:55:51;6.97;;;2.80;;
41629;SDS011;27322;49.488;8.480;2023-05-29T05:58:17;4.82;;;2.30;;
41629;SDS011;27322;49.488;8.480;2023-05-29T06:00:42;8.25;;;2.70;;
41629;SDS011;27322;49.488;8.480;2023-05-29T06:03:08;7.80;;;3.00;;
41629;SDS011;27322;49.488;8.480;2023-05-29T06:05:34;5.68;;;2.83;;
41629;SDS011;27322;49.488;8.480;2023-05-29T06:08:01;6.65;;;2.75;;
41629;SDS011;27322;49.488;8.480;2023-05-29T06:10:27;6.50;;;2.55;;
41629;SDS011;27322;49.488;8.480;2023-05-29T06:12:53;5.90;;;2.33;;
41629;SDS011;27322;49.488;8.480;2023-05-29T06:15:19;5.10;;;2.30;;
41629;SDS011;27322;49.488;8.480;2023-05-29T06:17:45;7.45;;;2.53;;
41629;SDS011;27322;49.488;8.480;2023-05-29T06:20:11;6.25;;;2.75;;
41629;SDS011;27322;49.488;8.480;2023-05-29T06:22:38;5.60;;;2.47;;
41629;SDS011;27322;49.488;8.480;2023-05-29T06:25:04;6.30;;;2.88;;
41629;SDS011;27322;49.488;8.480;2023-05-29T06:27:31;7.43;;;2.50;;
41629;SDS011;27322;49.488;8.480;2023-05-29T06:29:57;5.35;;;2.35;;
41629;SDS011;27322;49.488;8.480;2023-05-29T06:32:22;8.00;;;2.45;;
41629;SDS011;27322;49.488;8.480;2023-05-29T06:34:48;7.78;;;3.00;;
41629;SDS011;27322;49.488;8.480;2023-05-29T06:37:13;5.75;;;2.30;;
41629;SDS011;27322;49.488;8.480;2023-05-29T06:39:39;5.15;;;2.20;;
41629;SDS011;27322;49.488;8.480;2023-05-29T06:42:07;5.88;;;2.50;;
41629;SDS011;27322;49.488;8.480;2023-05-29T06:44:33;5.53;;;2.47;;
41629;SDS011;27322;49.488;8.480;2023-05-29T06:46:58;5.63;;;2.50;;
41629;SDS011;27322;49.488;8.480;2023-05-29T06:49:24;7.03;;;2.50;;
41629;SDS011;27322;49.488;8.480;2023-05-29T06:51:50;6.18;;;2.80;;
41629;SDS011;27322;49.488;8.480;2023-05-29T06:54:16;5.80;;;2.60;;
41629;SDS011;27322;49.488;8.480;2023-05-29T06:56:41;6.53;;;2.38;;
41629;SDS011;27322;49.488;8.480;2023-05-29T06:59:07;4.43;;;2.20;;
41629;SDS011;27322;49.488;8.480;2023-05-29T07:01:33;6.60;;;2.55;;
41629;SDS011;27322;49.488;8.480;2023-05-29T07:03:58;5.28;;;2.42;;
41629;SDS011;27322;49.488;8.480;2023-05-29T07:06:24;5.82;;;2.33;;
41629;SDS011;27322;49.488;8.480;2023-05-29T07:08:50;5.70;;;2.22;;
41629;SDS011;27322;49.488;8.480;2023-05-29T07:11:15;5.28;;;2.47;;
41629;SDS011;27322;49.488;8.480;2023-05-29T07:13:41;5.68;;;2.22;;
41629;SDS011;27322;49.488;8.480;2023-05-29T07:16:06;7.28;;;2.60;;
41629;SDS011;27322;49.488;8.480;2023-05-29T07:18:32;5.93;;;2.47;;
41629;SDS011;27322;49.488;8.480;2023-05-29T07:20:59;6.10;;;2.60;;
41629;SDS011;27322;49.488;8.480;2023-05-29T07:23:25;6.22;;;2.58;;
41629;SDS011;27322;49.488;8.480;2023-05-29T07:25:51;9.32;;;2.50;;
41629;SDS011;27322;49.488;8.480;2023-05-29T07:28:16;6.55;;;2.63;;
41629;SDS011;27322;49.488;8.480;2023-05-29T07:30:42;5.85;;;2.30;;
41629;SDS011;27322;49.488;8.480;2023-05-29T07:33:08;5.95;;;2.22;;
41629;SDS011;27322;49.488;8.480;2023-05-29T07:35:33;5.25;;;2.42;;
41629;SDS011;27322;49.488;8.480;2023-05-29T07:37:59;4.93;;;2.28;;
41629;SDS011;27322;49.488;8.480;2023-05-29T07:40:25;7.07;;;2.55;;
41629;SDS011;27322;49.488;8.480;2023-05-29T07:42:50;5.57;;;2.50;;
41629;SDS011;27322;49.488;8.480;2023-05-29T07:45:16;6.30;;;2.40;;
41629;SDS011;27322;49.488;8.480;2023-05-29T07:47:42;6.35;;;2.40;;
41629;SDS011;27322;49.488;8.480;2023-05-29T07:50:07;5.72;;;2.40;;
41629;SDS011;27322;49.488;8.480;2023-05-29T07:52:34;5.28;;;2.25;;
41629;SDS011;27322;49.488;8.480;2023-05-29T07:55:00;4.72;;;2.28;;
41629;SDS011;27322;49.488;8.480;2023-05-29T07:57:26;6.35;;;2.20;;
41629;SDS011;27322;49.488;8.480;2023-05-29T07:59:53;5.65;;;2.33;;
41629;SDS011;27322;49.488;8.480;2023-05-29T08:02:19;6.07;;;2.20;;
41629;SDS011;27322;49.488;8.480;2023-05-29T08:04:44;5.18;;;2.40;;
41629;SDS011;27322;49.488;8.480;2023-05-29T08:07:11;5.00;;;1.98;;
41629;SDS011;27322;49.488;8.480;2023-05-29T08:09:37;5.18;;;2.50;;
41629;SDS011;27322;49.488;8.480;2023-05-29T08:12:02;6.43;;;3.20;;
41629;SDS011;27322;49.488;8.480;2023-05-29T08:14:28;6.28;;;2.40;;
41629;SDS011;27322;49.488;8.480;2023-05-29T08:16:54;5.22;;;2.13;;
41629;SDS011;27322;49.488;8.480;2023-05-29T08:19:19;4.82;;;2.10;;
41629;SDS011;27322;49.488;8.480;2023-05-29T08:21:45;5.63;;;2.25;;
41629;SDS011;27322;49.488;8.480;2023-05-29T08:24:11;4.57;;;2.10;;
41629;SDS011;27322;49.488;8.480;2023-05-29T08:26:36;5.07;;;2.13;;
41629;SDS011;27322;49.488;8.480;2023-05-29T08:29:02;6.30;;;2.10;;
41629;SDS011;27322;49.488;8.480;2023-05-29T08:31:29;4.68;;;2.15;;
41629;SDS011;27322;49.488;8.480;2023-05-29T08:33:55;4.38;;;2.20;;
41629;SDS011;27322;49.488;8.480;2023-05-29T08:36:21;6.35;;;1.83;;
41629;SDS011;27322;49.488;8.480;2023-05-29T08:38:47;6.88;;;2.05;;
41629;SDS011;27322;49.488;8.480;2023-05-29T08:41:16;6.13;;;2.20;;
41629;SDS011;27322;49.488;8.480;2023-05-29T08:43:47;4.55;;;2.17;;
41629;SDS011;27322;49.488;8.480;2023-05-29T08:46:15;5.53;;;2.00;;
41629;SDS011;27322;49.488;8.480;2023-05-29T08:48:43;4.72;;;1.80;;
41629;SDS011;27322;49.488;8.480;2023-05-29T08:51:16;5.30;;;2.10;;
41629;SDS011;27322;49.488;8.480;2023-05-29T08:53:46;4.43;;;1.63;;
41629;SDS011;27322;49.488;8.480;2023-05-29T08:56:12;4.45;;;1.70;;
41629;SDS011;27322;49.488;8.480;2023-05-29T08:58:37;5.60;;;1.98;;
41629;SDS011;27322;49.488;8.480;2023-05-29T09:01:03;5.05;;;2.10;;
41629;SDS011;27322;49.488;8.480;2023-05-29T09:03:29;5.45;;;1.98;;
41629;SDS011;27322;49.488;8.480;2023-05-29T09:05:58;4.85;;;2.03;;
41629;SDS011;27322;49.488;8.480;2023-05-29T09:08:28;5.60;;;1.98;;
41629;SDS011;27322;49.488;8.480;2023-05-29T09:10:55;4.75;;;1.88;;
41629;SDS011;27322;49.488;8.480;2023-05-29T09:13:21;5.82;;;2.00;;
41629;SDS011;27322;49.488;8.480;2023-05-29T09:15:47;4.30;;;1.90;;
41629;SDS011;27322;49.488;8.480;2023-05-29T09:18:13;6.70;;;1.90;;
41629;SDS011;27322;49.488;8.480;2023-05-29T09:20:41;4.00;;;1.63;;
41629;SDS011;27322;49.488;8.480;2023-05-29T09:23:08;6.68;;;2.00;;
41629;SDS011;27322;49.488;8.480;2023-05-29T09:25:35;5.35;;;2.35;;
41629;SDS011;27322;49.488;8.480;2023-05-29T09:28:05;4.22;;;1.77;;
41629;SDS011;27322;49.488;8.480;2023-05-29T09:30:40;6.63;;;2.20;;
41629;SDS011;27322;49.488;8.480;2023-05-29T09:33:07;6.93;;;2.40;;
41629;SDS011;27322;49.488;8.480;2023-05-29T09:35:40;4.80;;;2.20;;
41629;SDS011;27322;49.488;8.480;2023-05-29T09:38:11;5.13;;;2.25;;
41629;SDS011;27322;49.488;8.480;2023-05-29T09:40:38;5.85;;;2.08;;
41629;SDS011;27322;49.488;8.480;2023-05-29T09:45:41;5.60;;;2.80;;
41629;SDS011;27322;49.488;8.480;2023-05-29T09:48:12;5.05;;;2.33;;
41629;SDS011;27322;49.488;8.480;2023-05-29T09:50:43;5.07;;;2.15;;
41629;SDS011;27322;49.488;8.480;2023-05-29T09:53:19;4.55;;;2.13;;
41629;SDS011;27322;49.488;8.480;2023-05-29T09:55:47;4.35;;;2.00;;
41629;SDS011;27322;49.488;8.480;2023-05-29T09:58:13;4.72;;;1.95;;
41629;SDS011;27322;49.488;8.480;2023-05-29T10:00:41;4.60;;;1.90;;
41629;SDS011;27322;49.488;8.480;2023-05-29T10:03:07;5.45;;;1.70;;
41629;SDS011;27322;49.488;8.480;2023-05-29T10:05:33;5.75;;;1.98;;
41629;SDS011;27322;49.488;8.480;2023-05-29T10:08:00;3.53;;;1.55;;
41629;SDS011;27322;49.488;8.480;2023-05-29T10:10:28;5.43;;;2.25;;
41629;SDS011;27322;49.488;8.480;2023-05-29T10:12:54;5.88;;;2.10;;
41629;SDS011;27322;49.488;8.480;2023-05-29T10:15:22;6.63;;;2.20;;
41629;SDS011;27322;49.488;8.480;2023-05-29T10:17:50;4.22;;;1.95;;
41629;SDS011;27322;49.488;8.480;2023-05-29T10:20:31;4.63;;;2.30;;
41629;SDS011;27322;49.488;8.480;2023-05-29T10:22:59;4.25;;;2.08;;
41629;SDS011;27322;49.488;8.480;2023-05-29T10:25:26;3.78;;;1.98;;
41629;SDS011;27322;49.488;8.480;2023-05-29T10:27:55;7.22;;;2.10;;
41629;SDS011;27322;49.488;8.480;2023-05-29T10:30:25;4.75;;;2.20;;
41629;SDS011;27322;49.488;8.480;2023-05-29T10:36:18;5.85;;;2.17;;
41629;SDS011;27322;49.488;8.480;2023-05-29T10:38:47;6.00;;;2.42;;
41629;SDS011;27322;49.488;8.480;2023-05-29T10:43:53;5.70;;;2.00;;
41629;SDS011;27322;49.488;8.480;2023-05-29T10:51:42;4.68;;;1.88;;
41629;SDS011;27322;49.488;8.480;2023-05-29T10:54:08;3.95;;;1.70;;
41629;SDS011;27322;49.488;8.480;2023-05-29T10:56:34;7.18;;;2.20;;
41629;SDS011;27322;49.488;8.480;2023-05-29T10:59:00;5.30;;;2.00;;
41629;SDS011;27322;49.488;8.480;2023-05-29T11:01:27;4.82;;;2.22;;
41629;SDS011;27322;49.488;8.480;2023-05-29T11:06:42;7.07;;;2.05;;
41629;SDS011;27322;49.488;8.480;2023-05-29T11:09:26;5.85;;;2.10;;
41629;SDS011;27322;49.488;8.480;2023-05-29T11:12:10;4.07;;;1.98;;
41629;SDS011;27322;49.488;8.480;2023-05-29T11:20:08;6.50;;;2.30;;
41629;SDS011;27322;49.488;8.480;2023-05-29T11:25:20;5.32;;;1.92;;
41629;SDS011;27322;49.488;8.480;2023-05-29T11:27:45;4.15;;;1.95;;
41629;SDS011;27322;49.488;8.480;2023-05-29T11:30:11;4.65;;;1.98;;
41629;SDS011;27322;49.488;8.480;2023-05-29T11:32:38;5.40;;;2.00;;
41629;SDS011;27322;49.488;8.480;2023-05-29T11:35:08;5.47;;;2.25;;
41629;SDS011;27322;49.488;8.480;2023-05-29T11:37:37;5.57;;;2.00;;
41629;SDS011;27322;49.488;8.480;2023-05-29T11:40:06;6.55;;;2.28;;
41629;SDS011;27322;49.488;8.480;2023-05-29T11:42:34;5.57;;;2.17;;
41629;SDS011;27322;49.488;8.480;2023-05-29T11:45:33;5.10;;;2.08;;
41629;SDS011;27322;49.488;8.480;2023-05-29T11:48:00;4.05;;;1.85;;
41629;SDS011;27322;49.488;8.480;2023-05-29T11:50:28;5.22;;;1.88;;
41629;SDS011;27322;49.488;8.480;2023-05-29T11:52:58;5.85;;;2.20;;
41629;SDS011;27322;49.488;8.480;2023-05-29T11:55:25;5.18;;;2.30;;
41629;SDS011;27322;49.488;8.480;2023-05-29T11:58:01;5.35;;;2.20;;
41629;SDS011;27322;49.488;8.480;2023-05-29T12:00:32;4.13;;;2.05;;
41629;SDS011;27322;49.488;8.480;2023-05-29T12:03:00;4.72;;;2.20;;
41629;SDS011;27322;49.488;8.480;2023-05-29T12:05:47;4.55;;;2.30;;
41629;SDS011;27322;49.488;8.480;2023-05-29T12:08:17;4.40;;;1.88;;
41629;SDS011;27322;49.488;8.480;2023-05-29T12:10:50;6.05;;;2.30;;
41629;SDS011;27322;49.488;8.480;2023-05-29T12:13:20;4.63;;;2.33;;
41629;SDS011;27322;49.488;8.480;2023-05-29T12:15:47;7.70;;;2.22;;
41629;SDS011;27322;49.488;8.480;2023-05-29T12:18:14;6.03;;;2.53;;
41629;SDS011;27322;49.488;8.480;2023-05-29T12:20:40;4.28;;;2.25;;
41629;SDS011;27322;49.488;8.480;2023-05-29T12:23:06;3.95;;;2.00;;
41629;SDS011;27322;49.488;8.480;2023-05-29T12:25:33;4.93;;;2.30;;
41629;SDS011;27322;49.488;8.480;2023-05-29T12:28:02;10.30;;;2.25;;
41629;SDS011;27322;49.488;8.480;2023-05-29T12:30:27;6.20;;;2.35;;
41629;SDS011;27322;49.488;8.480;2023-05-29T12:32:53;3.90;;;1.90;;
41629;SDS011;27322;49.488;8.480;2023-05-29T12:35:22;3.85;;;1.88;;
41629;SDS011;27322;49.488;8.480;2023-05-29T12:42:48;4.65;;;2.05;;
41629;SDS011;27322;49.488;8.480;2023-05-29T12:45:18;5.50;;;2.30;;
41629;SDS011;27322;49.488;8.480;2023-05-29T12:47:45;7.35;;;2.15;;
41629;SDS011;27322;49.488;8.480;2023-05-29T12:50:21;3.83;;;1.80;;
41629;SDS011;27322;49.488;8.480;2023-05-29T12:55:20;4.38;;;2.00;;
41629;SDS011;27322;49.488;8.480;2023-05-29T12:57:45;3.78;;;1.95;;
41629;SDS011;27322;49.488;8.480;2023-05-29T13:00:12;3.97;;;1.92;;
41629;SDS011;27322;49.488;8.480;2023-05-29T13:02:38;4.85;;;2.17;;
41629;SDS011;27322;49.488;8.480;2023-05-29T13:05:04;4.45;;;2.13;;
41629;SDS011;27322;49.488;8.480;2023-05-29T13:07:30;4.30;;;1.85;;
41629;SDS011;27322;49.488;8.480;2023-05-29T13:09:56;4.30;;;1.67;;
41629;SDS011;27322;49.488;8.480;2023-05-29T13:12:22;4.65;;;1.92;;
41629;SDS011;27322;49.488;8.480;2023-05-29T13:14:48;5.20;;;1.77;;
41629;SDS011;27322;49.488;8.480;2023-05-29T13:17:13;4.30;;;1.80;;
41629;SDS011;27322;49.488;8.480;2023-05-29T13:19:39;4.25;;;2.00;;
41629;SDS011;27322;49.488;8.480;2023-05-29T13:22:05;3.80;;;1.67;;
41629;SDS011;27322;49.488;8.480;2023-05-29T13:24:30;5.45;;;1.75;;
41629;SDS011;27322;49.488;8.480;2023-05-29T13:26:56;3.88;;;1.92;;
41629;SDS011;27322;49.488;8.480;2023-05-29T13:29:21;5.15;;;1.77;;
41629;SDS011;27322;49.488;8.480;2023-05-29T13:31:47;4.70;;;1.92;;
41629;SDS011;27322;49.488;8.480;2023-05-29T13:34:12;5.03;;;1.75;;
41629;SDS011;27322;49.488;8.480;2023-05-29T13:36:38;4.03;;;1.80;;
41629;SDS011;27322;49.488;8.480;2023-05-29T13:39:04;5.18;;;1.98;;
41629;SDS011;27322;49.488;8.480;2023-05-29T13:41:30;4.40;;;2.00;;
41629;SDS011;27322;49.488;8.480;2023-05-29T13:43:56;5.07;;;2.20;;
41629;SDS011;27322;49.488;8.480;2023-05-29T13:46:21;4.18;;;1.90;;
41629;SDS011;27322;49.488;8.480;2023-05-29T13:48:47;4.35;;;1.65;;
41629;SDS011;27322;49.488;8.480;2023-05-29T13:51:13;3.75;;;1.70;;
41629;SDS011;27322;49.488;8.480;2023-05-29T13:53:38;4.35;;;1.73;;
41629;SDS011;27322;49.488;8.480;2023-05-29T13:56:04;4.32;;;2.10;;
41629;SDS011;27322;49.488;8.480;2023-05-29T13:58:29;6.60;;;2.22;;
41629;SDS011;27322;49.488;8.480;2023-05-29T14:00:55;4.00;;;1.70;;
41629;SDS011;27322;49.488;8.480;2023-05-29T14:03:21;7.32;;;1.90;;
41629;SDS011;27322;49.488;8.480;2023-05-29T14:05:49;5.20;;;2.00;;
41629;SDS011;27322;49.488;8.480;2023-05-29T14:08:14;5.05;;;1.90;;
41629;SDS011;27322;49.488;8.480;2023-05-29T14:10:40;3.95;;;2.00;;
41629;SDS011;27322;49.488;8.480;2023-05-29T14:13:06;3.80;;;2.13;;
41629;SDS011;27322;49.488;8.480;2023-05-29T14:15:31;4.43;;;1.65;;
41629;SDS011;27322;49.488;8.480;2023-05-29T14:17:57;4.82;;;2.08;;
41629;SDS011;27322;49.488;8.480;2023-05-29T14:20:23;3.75;;;1.90;;
41629;SDS011;27322;49.488;8.480;2023-05-29T14:22:49;3.97;;;1.75;;
41629;SDS011;27322;49.488;8.480;2023-05-29T14:25:14;4.47;;;2.10;;
41629;SDS011;27322;49.488;8.480;2023-05-29T14:27:43;4.38;;;1.80;;
41629;SDS011;27322;49.488;8.480;2023-05-29T14:30:09;4.45;;;2.00;;
41629;SDS011;27322;49.488;8.480;2023-05-29T14:32:35;3.83;;;1.70;;
41629;SDS011;27322;49.488;8.480;2023-05-29T14:35:01;5.57;;;2.72;;
41629;SDS011;27322;49.488;8.480;2023-05-29T14:37:27;8.55;;;3.50;;
41629;SDS011;27322;49.488;8.480;2023-05-29T14:39:52;5.95;;;2.30;;
41629;SDS011;27322;49.488;8.480;2023-05-29T14:42:18;3.90;;;1.70;;
41629;SDS011;27322;49.488;8.480;2023-05-29T14:44:43;3.95;;;2.00;;
41629;SDS011;27322;49.488;8.480;2023-05-29T14:47:09;4.65;;;1.90;;
41629;SDS011;27322;49.488;8.480;2023-05-29T14:49:35;3.83;;;1.80;;
41629;SDS011;27322;49.488;8.480;2023-05-29T14:52:01;6.03;;;2.03;;
41629;SDS011;27322;49.488;8.480;2023-05-29T14:54:29;4.07;;;1.80;;
41629;SDS011;27322;49.488;8.480;2023-05-29T14:56:55;4.57;;;1.83;;
41629;SDS011;27322;49.488;8.480;2023-05-29T14:59:22;4.25;;;1.80;;
41629;SDS011;27322;49.488;8.480;2023-05-29T15:01:48;4.03;;;1.60;;
41629;SDS011;27322;49.488;8.480;2023-05-29T15:04:14;4.15;;;1.77;;
41629;SDS011;27322;49.488;8.480;2023-05-29T15:06:40;4.40;;;2.10;;
41629;SDS011;27322;49.488;8.480;2023-05-29T15:09:06;3.75;;;1.67;;
41629;SDS011;27322;49.488;8.480;2023-05-29T15:11:31;4.32;;;1.92;;
41629;SDS011;27322;49.488;8.480;2023-05-29T15:13:57;5.30;;;2.00;;
41629;SDS011;27322;49.488;8.480;2023-05-29T15:16:23;5.70;;;2.08;;
41629;SDS011;27322;49.488;8.480;2023-05-29T15:18:49;3.90;;;1.90;;
41629;SDS011;27322;49.488;8.480;2023-05-29T15:21:14;4.57;;;1.88;;
41629;SDS011;27322;49.488;8.480;2023-05-29T15:23:40;4.07;;;1.92;;
41629;SDS011;27322;49.488;8.480;2023-05-29T15:26:08;5.80;;;1.90;;
41629;SDS011;27322;49.488;8.480;2023-05-29T15:28:34;4.50;;;2.10;;
41629;SDS011;27322;49.488;8.480;2023-05-29T15:31:00;4.03;;;1.95;;
41629;SDS011;27322;49.488;8.480;2023-05-29T15:33:26;4.07;;;2.10;;
41629;SDS011;27322;49.488;8.480;2023-05-29T15:35:51;3.58;;;1.88;;
41629;SDS011;27322;49.488;8.480;2023-05-29T15:38:17;4.57;;;2.05;;
41629;SDS011;27322;49.488;8.480;2023-05-29T15:40:43;5.10;;;1.85;;
41629;SDS011;27322;49.488;8.480;2023-05-29T15:43:09;4.53;;;1.83;;
41629;SDS011;27322;49.488;8.480;2023-05-29T15:45:35;4.00;;;1.85;;
41629;SDS011;27322;49.488;8.480;2023-05-29T15:48:02;4.30;;;2.45;;
41629;SDS011;27322;49.488;8.480;2023-05-29T15:50:28;4.15;;;2.10;;
41629;SDS011;27322;49.488;8.480;2023-05-29T15:52:53;4.95;;;2.03;;
41629;SDS011;27322;49.488;8.480;2023-05-29T15:55:19;4.28;;;2.10;;
41629;SDS011;27322;49.488;8.480;2023-05-29T15:57:44;3.20;;;1.80;;
41629;SDS011;27322;49.488;8.480;2023-05-29T16:00:12;5.72;;;2.00;;
41629;SDS011;27322;49.488;8.480;2023-05-29T16:02:41;4.20;;;2.00;;
41629;SDS011;27322;49.488;8.480;2023-05-29T16:05:07;4.93;;;2.22;;
41629;SDS011;27322;49.488;8.480;2023-05-29T16:07:34;4.88;;;2.35;;
41629;SDS011;27322;49.488;8.480;2023-05-29T16:10:00;5.03;;;2.20;;
41629;SDS011;27322;49.488;8.480;2023-05-29T16:12:26;5.63;;;2.10;;
41629;SDS011;27322;49.488;8.480;2023-05-29T16:14:54;4.68;;;2.00;;
41629;SDS011;27322;49.488;8.480;2023-05-29T16:17:19;4.05;;;1.98;;
41629;SDS011;27322;49.488;8.480;2023-05-29T16:19:45;3.55;;;1.80;;
41629;SDS011;27322;49.488;8.480;2023-05-29T16:22:12;3.40;;;1.80;;
41629;SDS011;27322;49.488;8.480;2023-05-29T16:24:38;4.57;;;2.00;;
41629;SDS011;27322;49.488;8.480;2023-05-29T16:27:03;5.00;;;2.00;;